Time;durP1;ratioP1;P1;durP2;ratioP2;P2;SDS_P1;SDS_P2;PMS_P1;PMS_P2;Temp;Humidity;BMP_temperature;BMP_pressure;BME280_temperature;BME280_humidity;BME280_pressure;Samples;Min_cycle;Max_cycle;Signal;HPM_P1;HPM_P2
2022/04/19 00:00:52;;;;;;;40.30;26.57;;;16.30;54.90;;;;;;4913319;29;20223;-94
2022/04/19 00:03:20;;;;;;;34.97;24.20;;;16.20;54.50;;;;;;4915424;29;20241;-93
2022/04/19 00:05:49;;;;;;;37.90;24.43;;;16.20;54.40;;;;;;4913600;29;20217;-95
2022/04/19 00:08:18;;;;;;;35.17;24.20;;;16.20;54.70;;;;;;4915482;29;20195;-95
2022/04/19 00:10:45;;;;;;;32.47;23.90;;;16.20;54.80;;;;;;4912744;29;20210;-94
2022/04/19 00:13:16;;;;;;;34.93;25.57;;;16.20;54.70;;;;;;4914776;29;20280;-94
2022/04/19 00:15:44;;;;;;;35.27;24.73;;;16.20;55.10;;;;;;4915071;29;20224;-94
2022/04/19 00:18:11;;;;;;;34.20;24.20;;;16.10;54.80;;;;;;4914703;29;20246;-92
2022/04/19 00:20:40;;;;;;;33.70;24.10;;;16.10;54.80;;;;;;4912720;29;20199;-92
2022/04/19 00:23:12;;;;;;;33.60;24.00;;;16.10;54.90;;;;;;4912018;29;20307;-91
2022/04/19 00:25:41;;;;;;;33.83;23.27;;;16.10;55.10;;;;;;4914660;29;20207;-94
2022/04/19 00:28:08;;;;;;;36.00;25.20;;;16.10;55.10;;;;;;4913666;29;20746;-95
2022/04/19 00:30:35;;;;;;;36.67;25.60;;;16.00;55.10;;;;;;4913388;29;20211;-92
2022/04/19 00:33:07;;;;;;;42.20;26.70;;;16.00;55.00;;;;;;4913589;29;20229;-94
2022/04/19 00:35:36;;;;;;;35.77;25.10;;;16.00;55.30;;;;;;4913871;29;20302;-91
2022/04/19 00:38:04;;;;;;;34.10;24.67;;;16.00;55.30;;;;;;4905946;29;20708;-94
2022/04/19 00:40:33;;;;;;;33.33;22.87;;;15.90;55.30;;;;;;4913456;29;20217;-93
2022/04/19 00:43:02;;;;;;;31.83;23.80;;;15.90;55.40;;;;;;4912188;29;20353;-94
2022/04/19 00:45:31;;;;;;;33.43;24.57;;;15.90;55.40;;;;;;4912870;29;20225;-94
2022/04/19 00:47:58;;;;;;;33.90;24.17;;;15.90;55.40;;;;;;4913611;29;20212;-94
2022/04/19 00:50:25;;;;;;;34.33;23.90;;;15.80;56.00;;;;;;4914624;29;20206;-91
2022/04/19 00:52:55;;;;;;;33.87;24.07;;;15.80;55.50;;;;;;4913622;29;20222;-91
2022/04/19 00:55:22;;;;;;;42.87;26.87;;;15.80;55.70;;;;;;4913220;29;20218;-94
2022/04/19 00:57:52;;;;;;;32.70;23.47;;;15.80;55.60;;;;;;4911761;29;20202;-95
2022/04/19 01:00:23;;;;;;;40.03;25.03;;;15.80;55.80;;;;;;4913221;29;20729;-92
2022/04/19 01:02:50;;;;;;;37.60;23.70;;;15.70;55.60;;;;;;4913078;29;20729;-92
2022/04/19 01:05:17;;;;;;;29.30;22.50;;;15.70;55.60;;;;;;4913917;29;20214;-90
2022/04/19 01:07:46;;;;;;;40.53;26.53;;;15.70;55.70;;;;;;4911053;29;20221;-94
2022/04/19 01:10:13;;;;;;;32.83;24.00;;;15.70;55.80;;;;;;4913190;29;20205;-93
2022/04/19 01:15:26;;;;;;;37.83;23.80;;;15.70;55.90;;;;;;4895552;29;20214;-93
2022/04/19 01:17:54;;;;;;;39.40;24.87;;;15.60;55.90;;;;;;4912376;29;20219;-90
2022/04/19 01:20:22;;;;;;;32.60;22.70;;;15.70;56.00;;;;;;4922596;29;20710;-90
2022/04/19 01:22:52;;;;;;;36.20;24.70;;;15.60;55.90;;;;;;4898685;29;20235;-94
2022/04/19 01:25:20;;;;;;;38.03;24.63;;;15.60;56.20;;;;;;4913457;29;20290;-90
2022/04/19 01:27:48;;;;;;;36.60;23.90;;;15.60;56.00;;;;;;4909809;29;20209;-90
2022/04/19 01:30:17;;;;;;;35.13;23.57;;;15.60;56.30;;;;;;4916754;29;20288;-90
2022/04/19 01:32:44;;;;;;;38.53;25.67;;;15.60;56.30;;;;;;4910105;29;20222;-92
2022/04/19 01:35:13;;;;;;;37.43;24.30;;;15.50;56.20;;;;;;4915869;29;20215;-92
2022/04/19 01:37:42;;;;;;;38.83;25.37;;;15.60;56.40;;;;;;4914283;29;20237;-93
2022/04/19 01:40:20;;;;;;;36.23;25.07;;;15.50;56.30;;;;;;4914934;29;20236;-90
2022/04/19 01:42:50;;;;;;;32.07;23.43;;;15.50;56.40;;;;;;4916207;29;20218;-91
2022/04/19 01:45:19;;;;;;;32.83;23.83;;;15.50;56.40;;;;;;4914086;29;20678;-89
2022/04/19 01:47:47;;;;;;;37.60;25.97;;;15.50;56.40;;;;;;4914727;29;20281;-89
2022/04/19 01:50:15;;;;;;;32.53;24.37;;;15.40;56.30;;;;;;4915629;29;20627;-89
2022/04/19 01:52:43;;;;;;;39.53;26.23;;;15.50;56.70;;;;;;4913944;29;20235;-90
2022/04/19 01:55:14;;;;;;;46.30;28.03;;;15.40;56.70;;;;;;4915122;29;20302;-90
2022/04/19 01:57:42;;;;;;;37.93;26.47;;;15.40;57.00;;;;;;4920153;29;20208;-91
2022/04/19 02:00:11;;;;;;;39.87;27.63;;;15.30;56.90;;;;;;4915367;29;20206;-91
2022/04/19 02:02:40;;;;;;;35.50;24.83;;;15.30;57.10;;;;;;4915807;29;20555;-91
2022/04/19 02:05:08;;;;;;;35.53;26.37;;;15.30;57.20;;;;;;4915599;29;20617;-89
2022/04/19 02:07:39;;;;;;;39.23;27.17;;;15.30;57.20;;;;;;4916359;29;20210;-90
2022/04/19 02:10:08;;;;;;;42.10;27.00;;;15.20;57.30;;;;;;4929163;29;20213;-89
2022/04/19 02:12:36;;;;;;;35.43;25.80;;;15.20;57.20;;;;;;4915453;29;20718;-91
2022/04/19 02:15:04;;;;;;;39.03;25.57;;;15.20;58.00;;;;;;4914825;29;20252;-91
2022/04/19 02:17:31;;;;;;;36.63;25.87;;;15.20;57.40;;;;;;4915647;29;20352;-90
2022/04/19 02:20:03;;;;;;;35.80;25.67;;;15.20;57.40;;;;;;4915228;29;20253;-90
2022/04/19 02:22:32;;;;;;;46.90;28.27;;;15.20;57.70;;;;;;4915808;29;20289;-89
2022/04/19 02:24:59;;;;;;;44.97;26.80;;;15.20;57.60;;;;;;4918187;29;20205;-95
2022/04/19 02:27:26;;;;;;;38.70;25.40;;;15.10;58.20;;;;;;4912201;29;20297;-93
2022/04/19 02:29:55;;;;;;;37.00;25.60;;;15.10;57.70;;;;;;4901840;29;20217;-93
2022/04/19 02:32:23;;;;;;;45.43;27.67;;;15.10;57.60;;;;;;4915550;29;20213;-93
2022/04/19 02:34:50;;;;;;;30.10;23.67;;;15.10;57.70;;;;;;4915976;29;20240;-93
2022/04/19 02:37:18;;;;;;;31.93;23.97;;;15.10;57.90;;;;;;4916210;29;20246;-96
2022/04/19 02:39:47;;;;;;;32.70;24.93;;;15.00;58.00;;;;;;4916396;29;20202;-95
2022/04/19 02:42:14;;;;;;;31.73;24.33;;;15.10;58.20;;;;;;4917379;29;20686;-91
2022/04/19 02:44:41;;;;;;;38.17;26.23;;;15.00;58.20;;;;;;4916194;29;20583;-94
2022/04/19 02:47:10;;;;;;;36.37;25.90;;;15.00;58.30;;;;;;4916823;29;20201;-93
2022/04/19 02:49:37;;;;;;;35.07;26.63;;;15.00;58.30;;;;;;4916181;29;20225;-92
2022/04/19 02:52:05;;;;;;;32.60;24.60;;;14.90;58.10;;;;;;4917210;29;20220;-94
2022/04/19 02:54:32;;;;;;;43.23;27.33;;;14.90;58.20;;;;;;4897508;29;20324;-92
2022/04/19 02:56:59;;;;;;;39.50;25.90;;;14.90;58.10;;;;;;4916531;29;20209;-92
2022/04/19 02:59:28;;;;;;;42.67;26.40;;;14.90;58.20;;;;;;4912882;29;20233;-95
2022/04/19 03:01:57;;;;;;;39.27;25.93;;;14.90;58.40;;;;;;4916574;29;20668;-94
2022/04/19 03:04:27;;;;;;;37.93;27.30;;;14.90;58.10;;;;;;4927879;29;20232;-95
2022/04/19 03:07:00;;;;;;;39.70;27.13;;;14.90;58.40;;;;;;4916310;29;20207;-94
2022/04/19 03:09:32;;;;;;;35.13;27.13;;;14.90;58.90;;;;;;4914657;29;20309;-93
2022/04/19 03:12:03;;;;;;;41.57;26.67;;;14.80;59.10;;;;;;4916202;29;20684;-95
2022/04/19 03:14:30;;;;;;;39.67;28.03;;;14.80;59.00;;;;;;4917470;29;20241;-88
2022/04/19 03:16:57;;;;;;;38.50;27.90;;;14.80;58.90;;;;;;4912258;29;20222;-88
2022/04/19 03:19:24;;;;;;;42.10;28.00;;;14.70;58.80;;;;;;4911428;29;20214;-88
2022/04/19 03:21:52;;;;;;;39.97;27.63;;;14.70;58.80;;;;;;4901086;29;20582;-90
2022/04/19 03:29:57;;;;;;;41.87;27.60;;;14.70;59.10;;;;;;4916633;29;20213;-93
2022/04/19 03:32:26;;;;;;;41.10;27.73;;;14.70;59.10;;;;;;4915482;29;20239;-93
2022/04/19 03:34:54;;;;;;;44.90;29.77;;;14.60;59.30;;;;;;4915878;29;20289;-93
2022/04/19 03:37:23;;;;;;;39.10;28.40;;;14.60;59.40;;;;;;4913222;29;20231;-91
2022/04/19 03:39:50;;;;;;;39.10;27.37;;;14.60;59.90;;;;;;4915589;29;20300;-93
2022/04/19 03:42:19;;;;;;;43.30;29.17;;;14.50;59.80;;;;;;4914269;29;20296;-94
2022/04/19 03:44:46;;;;;;;39.37;29.37;;;14.50;59.90;;;;;;4915320;29;20292;-92
2022/04/19 03:47:15;;;;;;;46.43;30.57;;;14.50;60.60;;;;;;4913497;29;20278;-94
2022/04/19 03:49:43;;;;;;;40.53;28.87;;;14.40;60.00;;;;;;4916029;29;20349;-92
2022/04/19 03:52:10;;;;;;;38.53;28.73;;;14.40;59.80;;;;;;4907427;29;20299;-89
2022/04/19 03:54:39;;;;;;;40.10;29.67;;;14.40;59.80;;;;;;4895995;29;20232;-90
2022/04/19 03:57:10;;;;;;;41.57;28.07;;;14.40;60.30;;;;;;4900281;29;20312;-89
2022/04/19 03:59:39;;;;;;;36.13;27.57;;;14.40;59.80;;;;;;4916100;29;20292;-93
2022/04/19 04:02:07;;;;;;;39.07;26.40;;;14.40;59.80;;;;;;4920494;29;20259;-93
2022/04/19 04:04:36;;;;;;;40.90;26.67;;;14.30;59.70;;;;;;4933606;29;20216;-90
2022/04/19 04:07:05;;;;;;;37.73;26.67;;;14.30;59.70;;;;;;4913961;29;20208;-90
2022/04/19 04:09:35;;;;;;;38.30;25.90;;;14.30;59.50;;;;;;4911543;29;20661;-89
2022/04/19 04:12:05;;;;;;;37.20;26.23;;;14.30;59.70;;;;;;4914760;29;20213;-91
2022/04/19 04:14:32;;;;;;;41.47;27.50;;;14.30;59.70;;;;;;4908134;29;20229;-93
2022/04/19 04:16:59;;;;;;;37.23;26.07;;;14.30;59.70;;;;;;4917315;29;20213;-89
2022/04/19 04:19:27;;;;;;;39.47;26.77;;;14.30;59.70;;;;;;4914623;29;20210;-92
2022/04/19 04:21:54;;;;;;;37.97;27.07;;;14.30;59.70;;;;;;4912115;29;20296;-93
2022/04/19 04:24:21;;;;;;;39.00;26.57;;;14.30;59.70;;;;;;4912372;29;20851;-89
2022/04/19 04:26:48;;;;;;;47.60;28.97;;;14.30;59.80;;;;;;4911413;29;20260;-88
2022/04/19 04:29:16;;;;;;;37.57;26.97;;;14.30;59.80;;;;;;4912472;29;20205;-91
2022/04/19 04:31:43;;;;;;;44.77;28.73;;;14.20;60.20;;;;;;4909867;29;20293;-89
2022/04/19 04:34:11;;;;;;;41.20;26.73;;;14.20;60.30;;;;;;4911809;29;20237;-90
2022/04/19 04:36:38;;;;;;;40.23;27.63;;;14.20;60.40;;;;;;4913322;29;20666;-92
2022/04/19 04:39:05;;;;;;;43.77;27.23;;;14.20;60.60;;;;;;4913200;29;20256;-90
2022/04/19 04:41:32;;;;;;;39.60;28.20;;;14.20;60.80;;;;;;4912922;29;20610;-90
2022/04/19 04:43:59;;;;;;;42.87;27.67;;;14.10;60.80;;;;;;4911668;29;20213;-89
2022/04/19 04:51:56;;;;;;;38.07;26.90;;;14.10;61.20;;;;;;4912298;29;20255;-90
2022/04/19 04:54:24;;;;;;;39.83;27.30;;;14.10;61.30;;;;;;4908574;29;20225;-89
2022/04/19 04:56:51;;;;;;;40.60;27.60;;;14.10;61.70;;;;;;4912072;29;20233;-90
2022/04/19 04:59:19;;;;;;;44.93;27.53;;;14.10;61.80;;;;;;4914948;29;20315;-90
2022/04/19 05:01:48;;;;;;;43.20;27.13;;;14.10;62.20;;;;;;4909911;29;20215;-90
2022/04/19 05:04:15;;;;;;;45.80;28.43;;;14.00;62.20;;;;;;4915969;29;20197;-90
2022/04/19 05:06:42;;;;;;;36.80;26.37;;;14.00;62.10;;;;;;4911386;29;20208;-91
2022/04/19 05:09:09;;;;;;;37.07;26.17;;;14.00;62.10;;;;;;4913849;29;20291;-89
2022/04/19 05:11:36;;;;;;;39.73;26.73;;;14.00;62.20;;;;;;4915870;29;20791;-90
2022/04/19 05:14:02;;;;;;;34.20;24.47;;;14.00;62.20;;;;;;4915283;29;20343;-89
2022/04/19 05:16:30;;;;;;;43.33;29.00;;;14.00;62.30;;;;;;4907308;29;20731;-89
2022/04/19 05:18:58;;;;;;;40.63;27.73;;;14.00;62.50;;;;;;4913911;29;20581;-89
2022/04/19 05:21:25;;;;;;;35.67;25.87;;;13.90;62.80;;;;;;4914414;29;20224;-89
2022/04/19 05:23:52;;;;;;;37.77;26.07;;;14.00;63.00;;;;;;4915245;29;20217;-90
2022/04/19 05:26:19;;;;;;;35.43;23.87;;;14.00;63.00;;;;;;4914661;29;20220;-90
2022/04/19 05:28:46;;;;;;;34.73;24.80;;;14.00;63.20;;;;;;4915561;29;20733;-91
2022/04/19 05:31:13;;;;;;;32.97;24.00;;;14.00;63.40;;;;;;4915551;29;20292;-89
2022/04/19 05:33:40;;;;;;;38.43;25.07;;;14.00;64.30;;;;;;4915136;29;20212;-89
2022/04/19 05:36:13;;;;;;;40.27;25.17;;;14.00;63.70;;;;;;4914495;29;20213;-89
2022/04/19 05:38:40;;;;;;;45.57;25.87;;;14.00;64.30;;;;;;4915567;29;20307;-90
2022/04/19 05:41:07;;;;;;;40.83;24.73;;;14.00;64.00;;;;;;4905231;29;20206;-92
2022/04/19 05:43:35;;;;;;;37.03;25.77;;;14.10;64.20;;;;;;4914956;29;20642;-88
2022/04/19 05:46:02;;;;;;;32.07;23.57;;;14.10;64.40;;;;;;4914224;29;20252;-89
2022/04/19 05:48:29;;;;;;;36.93;25.33;;;14.10;64.70;;;;;;4915522;29;20212;-89
2022/04/19 05:50:56;;;;;;;36.63;24.73;;;14.10;64.70;;;;;;4925652;29;20297;-90
2022/04/19 05:53:25;;;;;;;33.13;23.60;;;14.10;65.00;;;;;;4899418;29;20216;-89
2022/04/19 05:55:53;;;;;;;39.93;24.43;;;14.10;65.10;;;;;;4915930;29;20338;-91
2022/04/19 05:58:21;;;;;;;33.53;23.03;;;14.20;65.10;;;;;;4923988;29;20245;-89
2022/04/19 06:00:48;;;;;;;34.43;24.40;;;14.20;65.10;;;;;;4923622;29;20209;-89
2022/04/19 06:06:06;;;;;;;38.87;24.97;;;14.20;65.50;;;;;;4898917;29;20641;-90
2022/04/19 06:08:35;;;;;;;31.63;21.77;;;14.20;65.20;;;;;;4903260;29;20217;-89
2022/04/19 06:11:02;;;;;;;31.60;22.47;;;14.30;65.30;;;;;;4918440;29;20212;-91
2022/04/19 06:13:29;;;;;;;36.33;23.00;;;14.30;65.30;;;;;;4909692;29;20557;-91
2022/04/19 06:15:55;;;;;;;29.23;22.17;;;14.40;65.40;;;;;;4915033;29;20320;-89
2022/04/19 06:18:22;;;;;;;31.53;21.70;;;14.40;65.20;;;;;;4913933;29;20224;-90
2022/04/19 06:20:54;;;;;;;33.00;22.80;;;14.40;65.10;;;;;;4914107;29;20219;-90
2022/04/19 06:23:21;;;;;;;35.67;22.57;;;14.50;65.10;;;;;;4913541;29;20207;-88
2022/04/19 06:25:49;;;;;;;32.47;22.83;;;14.50;65.10;;;;;;4914635;29;20309;-90
2022/04/19 06:28:18;;;;;;;31.77;21.50;;;14.50;65.20;;;;;;4912489;29;20317;-89
2022/04/19 06:30:46;;;;;;;67.27;26.87;;;14.50;65.10;;;;;;4914451;29;20198;-87
2022/04/19 06:33:13;;;;;;;63.07;27.57;;;14.60;64.90;;;;;;4913513;29;20210;-89
2022/04/19 06:35:43;;;;;;;286.80;67.40;;;14.70;65.00;;;;;;4913584;29;20705;-94
2022/04/19 06:38:10;;;;;;;49.23;24.97;;;14.70;65.40;;;;;;4914658;29;20339;-90
2022/04/19 06:40:37;;;;;;;84.10;31.17;;;14.70;65.00;;;;;;4912418;29;20298;-92
2022/04/19 06:43:06;;;;;;;62.37;26.10;;;14.80;65.00;;;;;;4911990;29;20297;-90
2022/04/19 06:45:34;;;;;;;542.50;105.57;;;14.80;65.00;;;;;;4913989;29;20302;-89
2022/04/19 06:48:09;;;;;;;338.83;67.87;;;14.80;64.80;;;;;;4914595;29;20863;-91
2022/04/19 06:50:38;;;;;;;316.53;59.37;;;14.90;65.70;;;;;;4895311;29;20233;-90
2022/04/19 06:53:06;;;;;;;43.53;22.40;;;14.90;65.00;;;;;;4899233;29;20324;-91
2022/04/19 06:55:34;;;;;;;77.30;28.33;;;15.00;64.80;;;;;;4913351;29;21365;-90
2022/04/19 06:58:01;;;;;;;42.47;23.00;;;15.00;64.80;;;;;;4913915;29;20297;-90
2022/04/19 07:00:29;;;;;;;36.27;21.83;;;15.10;64.80;;;;;;4914009;29;20299;-90
2022/04/19 07:02:56;;;;;;;325.97;66.67;;;15.10;64.70;;;;;;4914874;29;20246;-89
2022/04/19 07:05:24;;;;;;;143.50;35.60;;;15.20;64.60;;;;;;4916557;29;20269;-90
2022/04/19 07:07:51;;;;;;;69.87;26.67;;;15.20;64.50;;;;;;4913582;29;20294;-89
2022/04/19 07:10:21;;;;;;;65.00;23.80;;;15.30;64.40;;;;;;4911106;29;20209;-90
2022/04/19 07:12:48;;;;;;;27.00;18.27;;;15.30;64.30;;;;;;4914391;29;20302;-92
2022/04/19 07:15:15;;;;;;;39.70;21.07;;;15.40;63.70;;;;;;4913908;29;20248;-91
2022/04/19 07:17:44;;;;;;;58.53;22.03;;;15.40;63.90;;;;;;4912595;29;20209;-90
2022/04/19 07:28:37;;;;;;;87.07;25.90;;;15.70;64.00;;;;;;4914020;29;20224;-89
2022/04/19 07:31:05;;;;;;;49.00;22.20;;;15.80;63.40;;;;;;4913120;29;20291;-91
2022/04/19 07:33:37;;;;;;;28.40;17.67;;;15.80;63.20;;;;;;4914440;29;20252;-91
2022/04/19 07:36:05;;;;;;;36.67;18.07;;;15.90;62.90;;;;;;4913496;29;20279;-90
2022/04/19 07:38:34;;;;;;;27.03;17.87;;;15.90;62.50;;;;;;4914278;29;20328;-94
2022/04/19 07:41:02;;;;;;;33.50;17.87;;;16.00;62.30;;;;;;4914506;29;20691;-92
2022/04/19 07:43:34;;;;;;;72.10;24.23;;;16.10;62.30;;;;;;4915414;29;20212;-93
2022/04/19 07:46:04;;;;;;;31.33;17.80;;;16.10;62.30;;;;;;4914516;29;20310;-94
2022/04/19 07:48:31;;;;;;;29.90;17.87;;;16.10;62.80;;;;;;4914147;29;20216;-91
2022/04/19 07:51:00;;;;;;;21.53;15.83;;;16.20;62.10;;;;;;4906598;29;20261;-92
2022/04/19 07:53:27;;;;;;;26.13;17.30;;;16.30;61.80;;;;;;4895852;29;20212;-92
2022/04/19 07:55:57;;;;;;;34.67;18.43;;;16.30;61.80;;;;;;4903089;29;20272;-93
2022/04/19 07:58:24;;;;;;;435.10;74.97;;;16.40;61.90;;;;;;4915020;29;20227;-92
2022/04/19 08:00:51;;;;;;;190.70;40.83;;;16.50;62.00;;;;;;4914756;29;20205;-88
2022/04/19 08:03:18;;;;;;;29.90;18.37;;;16.50;61.90;;;;;;4913738;29;20220;-88
2022/04/19 08:05:45;;;;;;;27.53;18.07;;;16.60;61.50;;;;;;4902628;29;20776;-88
2022/04/19 08:08:13;;;;;;;30.83;19.87;;;16.60;61.10;;;;;;4896230;29;20295;-92
2022/04/19 08:10:41;;;;;;;37.97;17.87;;;16.70;61.00;;;;;;4902813;29;20291;-91
2022/04/19 08:13:08;;;;;;;31.43;17.77;;;16.80;61.00;;;;;;4917733;29;20291;-90
2022/04/19 08:15:37;;;;;;;28.07;17.03;;;16.80;60.90;;;;;;4920645;29;20282;-91
2022/04/19 08:18:05;;;;;;;26.43;16.57;;;16.90;61.00;;;;;;4920801;29;20573;-92
2022/04/19 08:20:32;;;;;;;46.00;19.23;;;16.90;60.60;;;;;;4914809;29;20223;-92
2022/04/19 08:22:59;;;;;;;22.93;16.97;;;17.00;60.80;;;;;;4914164;29;20295;-90
2022/04/19 08:25:29;;;;;;;26.33;17.77;;;17.00;60.60;;;;;;4913720;29;20216;-93
2022/04/19 08:27:57;;;;;;;402.63;97.93;;;17.10;60.30;;;;;;4912769;29;20243;-94
2022/04/19 08:30:24;;;;;;;33.60;19.37;;;17.20;60.40;;;;;;4912653;29;20252;-90
2022/04/19 08:32:51;;;;;;;28.83;17.63;;;17.20;60.00;;;;;;4912770;29;20323;-90
2022/04/19 08:35:19;;;;;;;29.50;17.97;;;17.30;60.00;;;;;;4912538;29;20991;-90
2022/04/19 08:37:46;;;;;;;165.77;39.43;;;17.40;60.10;;;;;;4912680;29;20308;-89
2022/04/19 08:40:14;;;;;;;53.97;23.30;;;17.40;60.20;;;;;;4916728;29;20208;-89
2022/04/19 08:42:46;;;;;;;22.83;16.90;;;17.50;60.20;;;;;;4916861;29;20296;-93
2022/04/19 08:45:16;;;;;;;24.53;16.87;;;17.50;60.10;;;;;;4911712;29;20209;-90
2022/04/19 08:47:44;;;;;;;33.10;18.17;;;17.60;59.90;;;;;;4913129;29;20246;-92
2022/04/19 08:50:13;;;;;;;26.97;18.40;;;17.70;60.00;;;;;;4914032;29;20260;-93
2022/04/19 08:52:41;;;;;;;28.67;18.13;;;17.80;59.90;;;;;;4915052;29;20240;-93
2022/04/19 08:57:56;;;;;;;30.83;18.37;;;18.00;59.90;;;;;;4916534;29;20348;-89
2022/04/19 09:00:24;;;;;;;49.67;20.70;;;18.10;59.80;;;;;;4917109;29;20217;-87
2022/04/19 09:02:52;;;;;;;28.80;19.57;;;18.30;59.50;;;;;;4913632;29;20215;-88
2022/04/19 09:05:21;;;;;;;45.23;20.20;;;18.40;59.20;;;;;;4911623;29;20674;-90
2022/04/19 09:07:50;;;;;;;80.67;28.03;;;18.50;59.10;;;;;;4910712;29;20288;-91
2022/04/19 09:10:26;;;;;;;35.73;18.17;;;18.70;59.00;;;;;;4911324;29;20297;-90
2022/04/19 09:13:20;;;;;;;84.83;28.83;;;18.80;58.60;;;;;;4910487;29;20295;-91
2022/04/19 09:15:47;;;;;;;40.63;20.33;;;19.00;57.90;;;;;;4912146;29;20268;-90
2022/04/19 09:18:23;;;;;;;356.63;65.00;;;19.20;58.30;;;;;;4913412;29;20309;-92
2022/04/19 09:20:51;;;;;;;652.43;114.33;;;19.30;58.00;;;;;;4910865;29;20209;-90
2022/04/19 09:23:19;;;;;;;393.17;59.73;;;19.40;58.10;;;;;;4912571;29;20211;-91
2022/04/19 09:25:51;;;;;;;43.93;20.50;;;19.50;57.80;;;;;;4915300;29;20287;-96
2022/04/19 09:28:24;;;;;;;33.67;19.73;;;19.70;57.20;;;;;;4912675;29;20284;-92
2022/04/19 09:30:53;;;;;;;30.63;19.87;;;19.80;56.70;;;;;;4911305;29;20223;-90
2022/04/19 09:33:20;;;;;;;88.30;28.47;;;19.80;56.60;;;;;;4911571;29;20257;-90
2022/04/19 09:35:51;;;;;;;512.70;92.33;;;19.90;56.50;;;;;;4914595;29;20265;-93
2022/04/19 09:38:18;;;;;;;56.00;23.40;;;20.00;56.50;;;;;;4911517;29;20701;-91
2022/04/19 09:40:49;;;;;;;27.90;19.27;;;20.00;56.40;;;;;;4911605;29;20205;-93
2022/04/19 09:43:20;;;;;;;175.70;36.30;;;20.10;55.80;;;;;;4916265;29;20248;-91
2022/04/19 09:45:56;;;;;;;124.70;31.50;;;20.10;55.90;;;;;;4916759;29;20205;-91
2022/04/19 09:48:25;;;;;;;28.80;19.10;;;20.20;55.90;;;;;;4910936;29;20289;-95
2022/04/19 09:50:57;;;;;;;89.10;25.50;;;20.30;55.90;;;;;;4915797;29;20307;-92
2022/04/19 09:53:28;;;;;;;69.17;25.17;;;20.30;55.90;;;;;;4916100;29;20220;-91
2022/04/19 09:55:57;;;;;;;38.10;20.17;;;20.30;55.90;;;;;;4917167;29;20222;-93
2022/04/19 09:58:30;;;;;;;24.53;17.70;;;20.40;56.00;;;;;;4918368;29;20222;-91
2022/04/19 10:01:00;;;;;;;23.13;16.20;;;20.50;56.00;;;;;;4917410;29;20217;-91
2022/04/19 10:09:19;;;;;;;29.40;17.97;;;20.60;55.70;;;;;;4870952;29;20220;-93
2022/04/19 10:11:46;;;;;;;24.93;16.97;;;20.70;55.50;;;;;;4916277;29;20207;-92
2022/04/19 10:14:14;;;;;;;22.83;16.43;;;20.70;55.50;;;;;;4916854;29;20302;-92
2022/04/19 10:16:44;;;;;;;28.87;19.00;;;20.80;55.50;;;;;;4916136;29;20247;-91
2022/04/19 10:19:11;;;;;;;25.83;18.17;;;20.90;55.40;;;;;;4916089;29;20244;-92
2022/04/19 10:21:44;;;;;;;24.47;16.13;;;20.90;55.50;;;;;;4917010;29;20716;-90
2022/04/19 10:24:15;;;;;;;25.40;17.80;;;21.00;54.70;;;;;;4916079;29;20220;-91
2022/04/19 10:26:55;;;;;;;23.33;17.17;;;21.10;54.70;;;;;;4916389;29;20244;-92
2022/04/19 10:29:24;;;;;;;23.07;15.70;;;21.20;55.10;;;;;;4911575;29;20680;-93
2022/04/19 10:32:01;;;;;;;20.20;15.50;;;21.30;54.20;;;;;;4912236;29;20216;-89
2022/04/19 10:34:29;;;;;;;22.93;17.23;;;21.40;53.20;;;;;;4900895;29;20208;-91
2022/04/19 10:37:00;;;;;;;21.40;15.40;;;21.40;53.50;;;;;;4915493;29;20244;-91
2022/04/19 10:39:32;;;;;;;23.80;17.07;;;21.50;53.90;;;;;;4913853;29;20207;-90
2022/04/19 10:42:01;;;;;;;21.70;15.97;;;21.50;53.00;;;;;;4915054;29;20204;-90
2022/04/19 10:44:35;;;;;;;19.20;15.43;;;21.60;52.60;;;;;;4915146;29;20284;-89
2022/04/19 10:47:15;;;;;;;18.03;14.30;;;21.60;52.60;;;;;;4914729;29;20231;-90
2022/04/19 10:50:07;;;;;;;21.80;16.40;;;21.60;52.60;;;;;;4915916;29;20260;-89
2022/04/19 10:52:50;;;;;;;22.63;16.30;;;21.70;52.60;;;;;;4915015;29;20300;-89
2022/04/19 10:55:29;;;;;;;24.57;16.47;;;21.80;52.40;;;;;;4914206;29;20215;-89
2022/04/19 10:58:16;;;;;;;31.07;14.50;;;21.80;52.10;;;;;;4915836;29;20205;-88
2022/04/19 11:00:56;;;;;;;17.67;14.50;;;21.90;52.40;;;;;;4913865;29;20264;-90
2022/04/19 11:03:49;;;;;;;17.97;14.80;;;22.00;51.70;;;;;;4911830;29;20223;-90
2022/04/19 11:06:32;;;;;;;21.87;14.53;;;22.10;51.70;;;;;;4913100;29;20298;-90
2022/04/19 11:09:23;;;;;;;29.40;15.67;;;22.10;51.60;;;;;;4913103;29;20212;-90
2022/04/19 11:11:52;;;;;;;25.80;16.13;;;22.30;51.50;;;;;;4913580;29;20212;-89
2022/04/19 11:14:47;;;;;;;28.70;17.70;;;22.40;51.90;;;;;;4910192;29;20596;-91
2022/04/19 11:17:28;;;;;;;36.10;18.47;;;22.50;51.30;;;;;;4912701;29;20243;-90
2022/04/19 11:19:58;;;;;;;801.73;153.43;;;22.70;51.10;;;;;;4914002;29;20211;-90
2022/04/19 11:22:29;;;;;;;71.43;23.33;;;22.80;51.40;;;;;;4912892;29;20211;-91
2022/04/19 11:25:07;;;;;;;80.63;25.27;;;22.90;51.30;;;;;;4913983;29;20205;-87
2022/04/19 11:28:11;;;;;;;61.20;20.13;;;23.00;50.20;;;;;;4913190;29;20219;-89
2022/04/19 11:30:43;;;;;;;19.50;14.30;;;23.10;49.50;;;;;;4913668;29;20236;-88
2022/04/19 11:33:10;;;;;;;801.90;147.80;;;23.20;49.90;;;;;;4909971;29;20201;-89
2022/04/19 11:35:38;;;;;;;149.33;39.77;;;23.30;50.00;;;;;;4912699;29;20689;-90
2022/04/19 11:38:09;;;;;;;44.07;19.93;;;23.30;49.40;;;;;;4918248;29;20723;-90
2022/04/19 11:49:02;;;;;;;25.30;13.30;;;23.50;49.50;;;;;;4904786;29;20208;-89
2022/04/19 11:51:35;;;;;;;604.53;107.30;;;23.60;49.40;;;;;;4913601;29;20215;-88
2022/04/19 11:54:02;;;;;;;137.80;31.73;;;23.60;49.40;;;;;;4914140;29;20204;-89
2022/04/19 11:56:29;;;;;;;34.57;16.93;;;23.60;49.00;;;;;;4911369;29;20243;-89
2022/04/19 11:59:00;;;;;;;47.07;16.13;;;23.60;48.90;;;;;;4911232;29;20658;-88
2022/04/19 12:01:28;;;;;;;48.80;16.97;;;23.70;48.80;;;;;;4913569;29;20316;-88
2022/04/19 12:03:55;;;;;;;101.17;23.17;;;23.80;48.80;;;;;;4913411;29;20236;-89
2022/04/19 12:06:23;;;;;;;29.27;14.27;;;23.80;48.90;;;;;;4913036;29;20668;-90
2022/04/19 12:08:53;;;;;;;20.67;12.60;;;23.80;48.20;;;;;;4912192;29;20236;-89
2022/04/19 12:11:25;;;;;;;21.77;13.80;;;23.80;46.90;;;;;;4919792;29;20565;-90
2022/04/19 12:13:53;;;;;;;138.53;29.67;;;23.80;46.80;;;;;;4913940;29;20216;-91
2022/04/19 12:16:30;;;;;;;39.23;16.90;;;23.80;47.40;;;;;;4922898;29;20235;-91
2022/04/19 12:19:00;;;;;;;14.83;12.73;;;23.80;45.20;;;;;;4919461;29;20626;-91
2022/04/19 12:21:38;;;;;;;20.80;13.83;;;23.80;46.30;;;;;;4913246;29;20640;-90
2022/04/19 12:24:08;;;;;;;32.93;13.20;;;23.90;46.80;;;;;;4912860;29;20749;-90
2022/04/19 12:26:36;;;;;;;42.10;16.03;;;23.90;46.20;;;;;;4913815;29;20221;-89
2022/04/19 12:29:14;;;;;;;29.93;13.63;;;24.00;46.00;;;;;;4914092;29;20302;-91
2022/04/19 12:31:44;;;;;;;589.43;140.00;;;24.10;45.00;;;;;;4912311;29;20287;-90
2022/04/19 12:34:13;;;;;;;41.53;17.63;;;24.20;46.20;;;;;;4914212;29;20261;-92
2022/04/19 12:36:45;;;;;;;19.07;13.43;;;24.30;47.20;;;;;;4912524;29;20259;-91
2022/04/19 12:39:16;;;;;;;20.50;14.23;;;24.40;47.00;;;;;;4914125;29;20244;-92
2022/04/19 12:41:44;;;;;;;395.20;69.07;;;24.50;47.10;;;;;;4914080;29;20303;-90
2022/04/19 12:44:13;;;;;;;45.73;18.43;;;24.60;47.20;;;;;;4913388;29;20303;-90
2022/04/19 12:46:42;;;;;;;45.50;20.80;;;24.70;46.80;;;;;;4912516;29;20255;-91
2022/04/19 12:49:20;;;;;;;33.20;15.53;;;24.80;46.00;;;;;;4912013;29;20219;-91
2022/04/19 12:51:59;;;;;;;207.87;38.33;;;24.80;45.30;;;;;;4909448;29;20219;-90
2022/04/19 12:54:29;;;;;;;77.67;20.37;;;24.90;45.30;;;;;;4903869;29;20209;-91
2022/04/19 12:57:01;;;;;;;149.50;29.27;;;25.00;45.30;;;;;;4913102;29;20244;-90
2022/04/19 12:59:29;;;;;;;32.00;18.03;;;25.00;44.90;;;;;;4912073;29;20208;-90
2022/04/19 13:01:56;;;;;;;31.43;15.43;;;25.10;44.60;;;;;;4912965;29;20729;-91
2022/04/19 13:04:23;;;;;;;20.77;13.83;;;25.10;43.20;;;;;;4916481;29;20213;-90
2022/04/19 13:12:19;;;;;;;20.10;14.20;;;25.20;43.10;;;;;;4866228;29;20570;-92
2022/04/19 13:14:47;;;;;;;22.43;14.43;;;25.10;43.40;;;;;;4897996;29;20231;-89
2022/04/19 13:17:16;;;;;;;27.13;13.90;;;25.20;43.90;;;;;;4905571;29;20308;-93
2022/04/19 13:19:45;;;;;;;18.90;13.57;;;25.20;43.70;;;;;;4917165;29;20299;-91
2022/04/19 13:22:12;;;;;;;26.73;16.17;;;25.30;44.00;;;;;;4915294;29;20213;-88
2022/04/19 13:24:42;;;;;;;17.10;14.03;;;25.40;43.20;;;;;;4915950;29;20193;-91